Time;durP1;ratioP1;P1;durP2;ratioP2;P2;SDS_P1;SDS_P2;PMS_P1;PMS_P2;Temp;Humidity;BMP_temperature;BMP_pressure;BME280_temperature;BME280_humidity;BME280_pressure;Samples;Min_cycle;Max_cycle;Signal;HPM_P1;HPM_P2
2021/05/30 00:00:47;;;;;;;;;;;10.70;99.90;;;;;;5053760;28;19925;-68
2021/05/30 00:03:17;;;;;;;;;;;10.60;99.90;;;;;;5053330;28;19971;-68
2021/05/30 00:05:44;;;;;;;;;;;10.50;99.90;;;;;;5054403;28;19932;-67
2021/05/30 00:08:13;;;;;;;;;;;10.40;99.90;;;;;;5054195;28;19932;-67
2021/05/30 00:10:41;;;;;;;;;;;10.40;99.90;;;;;;5053033;28;19971;-67
2021/05/30 00:13:09;;;;;;;;;;;10.30;99.90;;;;;;5054805;28;20015;-68
2021/05/30 00:15:36;;;;;;;;;;;10.20;99.90;;;;;;5053391;28;19932;-67
2021/05/30 00:18:04;;;;;;;;;;;10.10;99.90;;;;;;5053807;28;19974;-67
2021/05/30 00:20:33;;;;;;;;;;;10.10;99.90;;;;;;5054058;28;20012;-70
2021/05/30 00:23:00;;;;;;;;;;;9.90;99.90;;;;;;5054171;28;19924;-67
2021/05/30 00:25:28;;;;;;;;;;;9.90;99.90;;;;;;5036337;28;19925;-67
2021/05/30 00:27:56;;;;;;;;;;;9.80;99.90;;;;;;5054335;28;20354;-68
2021/05/30 00:30:24;;;;;;;;;;;9.70;99.90;;;;;;5052979;28;19995;-67
2021/05/30 00:32:52;;;;;;;;;;;9.60;99.90;;;;;;5053836;28;20015;-67
2021/05/30 00:35:20;;;;;;;;;;;9.60;99.90;;;;;;5053799;28;20376;-67
2021/05/30 00:37:50;;;;;;;;;;;9.60;99.90;;;;;;5053759;28;19968;-67
2021/05/30 00:40:18;;;;;;;;;;;9.50;99.90;;;;;;5053883;28;19925;-70
2021/05/30 00:42:45;;;;;;;;;;;9.40;99.90;;;;;;5053509;28;19924;-68
2021/05/30 00:45:13;;;;;;;;;;;9.40;99.90;;;;;;5053295;28;20020;-67
2021/05/30 00:47:41;;;;;;;;;;;9.40;99.90;;;;;;5035807;28;20029;-68
2021/05/30 00:50:11;;;;;;;;;;;9.30;99.90;;;;;;5052431;28;19996;-68
2021/05/30 00:52:40;;;;;;;;;;;9.20;99.90;;;;;;5053659;28;19935;-68
2021/05/30 00:55:10;;;;;;;;;;;9.10;99.90;;;;;;5053533;28;20038;-68
2021/05/30 00:57:41;;;;;;;;;;;9.10;99.90;;;;;;5053601;28;19955;-67
2021/05/30 01:00:10;;;;;;;;;;;9.20;99.90;;;;;;5053257;28;19932;-68
2021/05/30 01:05:30;;;;;;;;;;;9.20;99.90;;;;;;5053812;28;20403;-68
2021/05/30 01:07:58;;;;;;;;;;;9.20;99.90;;;;;;5052209;28;19924;-70
2021/05/30 01:10:32;;;;;;;;;;;9.20;99.90;;;;;;5053448;28;20296;-67
2021/05/30 01:13:00;;;;;;;;;;;9.20;99.90;;;;;;5053921;28;19931;-68
2021/05/30 01:15:29;;;;;;;;;;;9.10;99.90;;;;;;5051875;28;19925;-70
2021/05/30 01:17:58;;;;;;;;;;;9.10;99.90;;;;;;5052064;28;19924;-68
2021/05/30 01:20:26;;;;;;;;;;;9.00;99.90;;;;;;5053164;28;20019;-68
2021/05/30 01:22:54;;;;;;;;;;;9.00;99.90;;;;;;5051680;28;19925;-67
2021/05/30 01:25:24;;;;;;;;;;;8.90;99.90;;;;;;5035743;28;20024;-68
2021/05/30 01:27:53;;;;;;;;;;;8.80;99.90;;;;;;5053634;28;19967;-67
2021/05/30 01:30:21;;;;;;;;;;;8.80;99.90;;;;;;5052674;28;19932;-67
2021/05/30 01:32:50;;;;;;;;;;;8.80;99.90;;;;;;5053018;28;19924;-67
2021/05/30 01:35:18;;;;;;;;;;;8.70;99.90;;;;;;5053444;28;20048;-67
2021/05/30 01:37:48;;;;;;;;;;;8.60;99.90;;;;;;5053191;28;19971;-68
2021/05/30 01:40:16;;;;;;;;;;;8.60;99.90;;;;;;5053593;28;19983;-67
2021/05/30 01:42:45;;;;;;;;;;;8.60;99.90;;;;;;5052010;28;19924;-68
2021/05/30 01:45:13;;;;;;;;;;;8.50;99.90;;;;;;5053177;28;20407;-68
2021/05/30 01:47:41;;;;;;;;;;;8.60;99.90;;;;;;5053239;28;19929;-67
2021/05/30 01:50:35;;;;;;;;;;;8.50;99.90;;;;;;5053472;28;19971;-67
2021/05/30 01:53:06;;;;;;;;;;;8.40;99.90;;;;;;5055224;28;20362;-69
2021/05/30 01:55:47;;;;;;;;;;;8.30;99.90;;;;;;5069021;28;19972;-70
2021/05/30 01:58:16;;;;;;;;;;;8.20;99.90;;;;;;5058416;28;20334;-71
2021/05/30 02:00:45;;;;;;;;;;;8.10;99.90;;;;;;5052688;28;20325;-68
2021/05/30 02:03:38;;;;;;;;;;;8.10;99.90;;;;;;5052862;28;19931;-71
2021/05/30 02:06:07;;;;;;;;;;;8.00;99.90;;;;;;5052700;28;19929;-68
2021/05/30 02:08:38;;;;;;;;;;;8.00;99.90;;;;;;5052601;28;19925;-68
2021/05/30 02:11:08;;;;;;;;;;;7.90;99.90;;;;;;5052584;28;19943;-71
2021/05/30 02:13:37;;;;;;;;;;;7.90;99.90;;;;;;5052855;28;19931;-68
2021/05/30 02:16:05;;;;;;;;;;;7.80;99.90;;;;;;5051650;28;20380;-68
2021/05/30 02:18:33;;;;;;;;;;;7.80;99.90;;;;;;5034588;28;19925;-68
2021/05/30 02:21:01;;;;;;;;;;;7.70;99.90;;;;;;5052586;28;19925;-68
2021/05/30 02:23:31;;;;;;;;;;;7.70;99.90;;;;;;5052323;28;20634;-68
2021/05/30 02:26:02;;;;;;;;;;;7.60;99.90;;;;;;5054601;28;19994;-68
2021/05/30 02:28:33;;;;;;;;;;;7.60;99.90;;;;;;5055095;28;19925;-69
2021/05/30 02:31:02;;;;;;;;;;;7.60;99.90;;;;;;5054568;28;19924;-69
2021/05/30 02:33:30;;;;;;;;;;;7.50;99.90;;;;;;5055424;28;20020;-69
2021/05/30 02:35:59;;;;;;;;;;;7.40;99.90;;;;;;5056298;28;19995;-68
2021/05/30 02:38:26;;;;;;;;;;;7.50;99.90;;;;;;5056445;28;19925;-68
2021/05/30 02:40:54;;;;;;;;;;;7.50;99.90;;;;;;5055315;28;19961;-68
2021/05/30 02:43:22;;;;;;;;;;;7.50;99.90;;;;;;5055071;28;20462;-70
2021/05/30 02:45:50;;;;;;;;;;;7.50;99.90;;;;;;5053938;28;19931;-68
2021/05/30 02:48:18;;;;;;;;;;;7.60;99.90;;;;;;5056249;28;19975;-68
2021/05/30 02:50:57;;;;;;;;;;;7.60;99.90;;;;;;5055993;28;19939;-68
2021/05/30 02:53:26;;;;;;;;;;;7.50;99.90;;;;;;5055974;28;19974;-68
2021/05/30 02:55:53;;;;;;;;;;;7.50;99.90;;;;;;5056285;28;19925;-68
2021/05/30 02:58:21;;;;;;;;;;;7.40;99.90;;;;;;5056163;28;19925;-68
2021/05/30 03:00:49;;;;;;;;;;;7.30;99.90;;;;;;5055225;28;19971;-68
2021/05/30 03:03:18;;;;;;;;;;;7.20;99.90;;;;;;5054679;28;19931;-68
2021/05/30 03:05:46;;;;;;;;;;;7.20;99.90;;;;;;5056119;28;20058;-70
2021/05/30 03:08:13;;;;;;;;;;;7.20;99.90;;;;;;5056138;28;20338;-68
2021/05/30 03:10:41;;;;;;;;;;;7.30;99.90;;;;;;5055086;28;20359;-68
2021/05/30 03:13:12;;;;;;;;;;;7.20;99.90;;;;;;5056808;28;19925;-68
2021/05/30 03:15:41;;;;;;;;;;;7.20;99.90;;;;;;5055455;28;19925;-68
2021/05/30 03:18:08;;;;;;;;;;;7.20;99.90;;;;;;5056192;28;19928;-68
2021/05/30 03:20:37;;;;;;;;;;;7.10;99.90;;;;;;5064243;28;19952;-68
2021/05/30 03:23:04;;;;;;;;;;;7.10;99.90;;;;;;5063511;28;20388;-70
2021/05/30 03:25:32;;;;;;;;;;;7.10;99.90;;;;;;5061683;28;19951;-68
2021/05/30 03:28:00;;;;;;;;;;;7.10;99.90;;;;;;5063602;28;19926;-70
2021/05/30 03:30:28;;;;;;;;;;;7.00;99.90;;;;;;5061706;28;19929;-68
2021/05/30 03:32:56;;;;;;;;;;;7.00;99.90;;;;;;5061635;28;19944;-68
2021/05/30 03:35:24;;;;;;;;;;;7.00;99.90;;;;;;5062512;28;19925;-68
2021/05/30 03:37:52;;;;;;;;;;;6.90;99.90;;;;;;5060115;28;20405;-68
2021/05/30 03:40:28;;;;;;;;;;;7.00;99.90;;;;;;5058539;28;20064;-68
2021/05/30 03:42:56;;;;;;;;;;;7.00;99.90;;;;;;5043424;28;19925;-68
2021/05/30 03:45:24;;;;;;;;;;;7.00;99.90;;;;;;5055938;28;19924;-68
2021/05/30 03:47:52;;;;;;;;;;;7.00;99.90;;;;;;5056644;28;20351;-68
2021/05/30 03:50:20;;;;;;;;;;;7.00;99.90;;;;;;5056352;28;20273;-68
2021/05/30 03:52:48;;;;;;;;;;;7.00;99.90;;;;;;5054220;28;19979;-68
2021/05/30 03:55:42;;;;;;;;;;;7.00;99.90;;;;;;5055188;28;19996;-68
2021/05/30 03:58:11;;;;;;;;;;;7.00;99.90;;;;;;5054877;28;19971;-69
2021/05/30 04:00:39;;;;;;;;;;;7.00;99.90;;;;;;5054020;28;19997;-68
2021/05/30 04:03:07;;;;;;;;;;;7.00;99.90;;;;;;5055406;28;19929;-68
2021/05/30 04:05:34;;;;;;;;;;;7.10;99.90;;;;;;5054912;28;19931;-70
2021/05/30 04:08:02;;;;;;;;;;;7.10;99.90;;;;;;5054814;28;20020;-68
2021/05/30 04:10:30;;;;;;;;;;;7.20;99.90;;;;;;5055203;28;19925;-68
2021/05/30 04:12:59;;;;;;;;;;;7.20;99.90;;;;;;5037320;28;20295;-71
2021/05/30 04:15:28;;;;;;;;;;;7.20;99.90;;;;;;5053885;28;19990;-68
2021/05/30 04:17:55;;;;;;;;;;;7.30;99.90;;;;;;5054842;28;19924;-68
2021/05/30 04:20:23;;;;;;;;;;;7.30;99.90;;;;;;5054623;28;19932;-68
2021/05/30 04:22:51;;;;;;;;;;;7.40;99.90;;;;;;5054591;28;20147;-68
2021/05/30 04:25:19;;;;;;;;;;;7.40;99.90;;;;;;5054619;28;19924;-68
2021/05/30 04:27:50;;;;;;;;;;;7.50;99.90;;;;;;5053473;28;20327;-68
2021/05/30 04:30:19;;;;;;;;;;;7.60;99.90;;;;;;5053811;28;20023;-68
2021/05/30 04:32:47;;;;;;;;;;;7.60;99.90;;;;;;5054462;28;19978;-68
2021/05/30 04:35:15;;;;;;;;;;;7.70;99.90;;;;;;5054843;28;20027;-68
2021/05/30 04:37:43;;;;;;;;;;;7.80;99.90;;;;;;5054809;28;20020;-68
2021/05/30 04:40:12;;;;;;;;;;;7.90;99.90;;;;;;5053557;28;19933;-68
2021/05/30 04:42:40;;;;;;;;;;;8.00;99.90;;;;;;5054338;28;20003;-69
2021/05/30 04:45:08;;;;;;;;;;;8.10;99.90;;;;;;5053775;28;19931;-68
2021/05/30 04:47:37;;;;;;;;;;;8.20;99.90;;;;;;5053792;28;19931;-68
2021/05/30 04:50:05;;;;;;;;;;;8.30;99.90;;;;;;5051755;28;19964;-68
2021/05/30 04:52:38;;;;;;;;;;;8.40;99.90;;;;;;5054550;28;19924;-70
2021/05/30 04:55:07;;;;;;;;;;;8.50;99.90;;;;;;5054739;28;20020;-67
2021/05/30 04:57:35;;;;;;;;;;;8.60;99.90;;;;;;5052933;28;19925;-70
2021/05/30 05:00:04;;;;;;;;;;;8.70;99.90;;;;;;5054549;28;19939;-68
2021/05/30 05:02:32;;;;;;;;;;;8.90;99.90;;;;;;5053557;28;19931;-67
2021/05/30 05:05:00;;;;;;;;;;;8.90;99.90;;;;;;5054135;28;19925;-68
2021/05/30 05:07:28;;;;;;;;;;;9.10;99.90;;;;;;5054135;28;20384;-67
2021/05/30 05:09:56;;;;;;;;;;;9.20;99.90;;;;;;5053948;28;19925;-68
2021/05/30 05:12:24;;;;;;;;;;;9.50;99.90;;;;;;5053379;28;19925;-67
2021/05/30 05:14:52;;;;;;;;;;;9.70;99.90;;;;;;5053630;28;19951;-68
2021/05/30 05:17:20;;;;;;;;;;;9.90;99.90;;;;;;5053118;28;19925;-67
2021/05/30 05:19:48;;;;;;;;;;;10.20;99.90;;;;;;5033527;28;19925;-70
2021/05/30 05:22:16;;;;;;;;;;;10.40;99.90;;;;;;5033463;28;19925;-68
2021/05/30 05:25:00;;;;;;;;;;;10.70;99.90;;;;;;5032200;28;20008;-69
2021/05/30 05:27:27;;;;;;;;;;;10.90;99.90;;;;;;5033922;28;19964;-67
2021/05/30 05:29:55;;;;;;;;;;;11.00;99.90;;;;;;5032154;28;19929;-68
2021/05/30 05:32:23;;;;;;;;;;;11.10;99.90;;;;;;5032728;28;19929;-68
2021/05/30 05:34:51;;;;;;;;;;;11.30;99.90;;;;;;5033654;28;19986;-68
2021/05/30 05:37:19;;;;;;;;;;;11.50;99.90;;;;;;5015559;28;19944;-68
2021/05/30 05:40:12;;;;;;;;;;;11.50;99.90;;;;;;5033606;28;19969;-68
2021/05/30 05:42:40;;;;;;;;;;;11.50;99.90;;;;;;5033661;28;20388;-71
2021/05/30 05:45:08;;;;;;;;;;;11.70;99.90;;;;;;5033668;28;19948;-68
2021/05/30 05:47:36;;;;;;;;;;;11.80;99.90;;;;;;5032798;28;19925;-69
2021/05/30 05:50:05;;;;;;;;;;;12.00;99.90;;;;;;5033625;28;20028;-68
2021/05/30 05:52:34;;;;;;;;;;;12.10;99.90;;;;;;5033439;28;19987;-68
2021/05/30 05:55:02;;;;;;;;;;;12.20;99.90;;;;;;5015195;28;19925;-67
2021/05/30 05:57:30;;;;;;;;;;;12.40;99.90;;;;;;5031962;28;20396;-68
2021/05/30 05:59:59;;;;;;;;;;;12.60;99.90;;;;;;5033742;28;19925;-68
2021/05/30 06:02:27;;;;;;;;;;;12.50;99.90;;;;;;5038616;28;19925;-68
2021/05/30 06:04:54;;;;;;;;;;;12.40;99.90;;;;;;5058161;28;19968;-68
2021/05/30 06:07:23;;;;;;;;;;;12.50;99.90;;;;;;5057662;28;19931;-68
2021/05/30 06:09:51;;;;;;;;;;;12.80;99.90;;;;;;5057259;28;19929;-68
2021/05/30 06:12:19;;;;;;;;;;;12.80;99.90;;;;;;5058040;28;19988;-68
2021/05/30 06:14:47;;;;;;;;;;;12.90;99.90;;;;;;5057271;28;20255;-68
2021/05/30 06:17:15;;;;;;;;;;;12.80;99.90;;;;;;5055716;28;19925;-68
2021/05/30 06:19:42;;;;;;;;;;;13.20;99.90;;;;;;5056987;28;20411;-70
2021/05/30 06:22:10;;;;;;;;;;;13.20;99.90;;;;;;5057886;28;19925;-69
2021/05/30 06:24:38;;;;;;;;;;;13.20;99.90;;;;;;5057974;28;19928;-68
2021/05/30 06:27:07;;;;;;;;;;;13.40;99.90;;;;;;5063230;28;19955;-69
2021/05/30 06:29:34;;;;;;;;;;;13.10;99.90;;;;;;5073341;28;19913;-69
2021/05/30 06:32:02;;;;;;;;;;;12.90;99.90;;;;;;5057177;28;20018;-71
2021/05/30 06:34:30;;;;;;;;;;;13.20;99.90;;;;;;5059079;28;20031;-68
2021/05/30 06:37:00;;;;;;;;;;;13.50;99.90;;;;;;5057043;28;19929;-68
2021/05/30 06:39:29;;;;;;;;;;;14.00;99.90;;;;;;5039749;28;19975;-67
2021/05/30 06:41:57;;;;;;;;;;;14.70;99.90;;;;;;5057002;28;19925;-68
2021/05/30 06:44:26;;;;;;;;;;;15.10;99.90;;;;;;5057376;28;19925;-69
2021/05/30 06:46:53;;;;;;;;;;;16.00;99.90;;;;;;5042269;28;19933;-67
2021/05/30 06:49:21;;;;;;;;;;;16.40;99.00;;;;;;5037125;28;19964;-70
2021/05/30 06:51:49;;;;;;;;;;;17.30;97.50;;;;;;5037161;28;19925;-65
2021/05/30 06:54:17;;;;;;;;;;;18.70;94.60;;;;;;5038255;28;19941;-65
2021/05/30 06:56:45;;;;;;;;;;;19.00;91.80;;;;;;5038854;28;19925;-65
2021/05/30 06:59:13;;;;;;;;;;;18.90;91.30;;;;;;5019928;28;19975;-67
2021/05/30 07:01:42;;;;;;;;;;;18.30;91.50;;;;;;5036695;28;19925;-66
2021/05/30 07:04:10;;;;;;;;;;;19.30;90.60;;;;;;5038094;28;19925;-65
2021/05/30 07:06:37;;;;;;;;;;;18.60;90.00;;;;;;5020534;28;20282;-65
2021/05/30 07:09:06;;;;;;;;;;;19.20;90.10;;;;;;5038072;28;19980;-67
2021/05/30 07:11:38;;;;;;;;;;;19.90;87.20;;;;;;5035624;28;19968;-65
2021/05/30 07:14:05;;;;;;;;;;;20.60;84.10;;;;;;5036721;28;19925;-67
2021/05/30 07:16:33;;;;;;;;;;;22.90;75.90;;;;;;5037066;28;19995;-68
2021/05/30 07:19:03;;;;;;;;;;;23.10;67.30;;;;;;5051022;28;20035;-67
2021/05/30 07:21:31;;;;;;;;;;;24.00;63.20;;;;;;5039585;28;19932;-67
2021/05/30 07:23:59;;;;;;;;;;;24.90;56.90;;;;;;5056936;28;20027;-67
2021/05/30 07:26:27;;;;;;;;;;;24.40;54.80;;;;;;5039468;28;19931;-69
2021/05/30 07:28:55;;;;;;;;;;;23.50;57.80;;;;;;5056571;28;19925;-68
2021/05/30 07:31:23;;;;;;;;;;;23.70;54.60;;;;;;5055739;28;19952;-66
2021/05/30 07:33:51;;;;;;;;;;;23.20;55.60;;;;;;5056765;28;19925;-67
2021/05/30 07:36:20;;;;;;;;;;;24.20;56.40;;;;;;5056284;28;19931;-68
2021/05/30 07:38:48;;;;;;;;;;;24.20;56.40;;;;;;5056505;28;20287;-67
2021/05/30 07:41:16;;;;;;;;;;;25.20;53.90;;;;;;5055959;28;20457;-66
2021/05/30 07:43:43;;;;;;;;;;;25.10;54.10;;;;;;5038754;28;19974;-68
2021/05/30 07:46:11;;;;;;;;;;;24.70;51.60;;;;;;5053993;28;19971;-68
2021/05/30 07:48:39;;;;;;;;;;;26.40;50.20;;;;;;5056794;28;19925;-69
2021/05/30 07:51:08;;;;;;;;;;;26.50;47.70;;;;;;5056159;28;20368;-68
2021/05/30 07:53:37;;;;;;;;;;;24.90;48.70;;;;;;5056983;28;20368;-67
2021/05/30 07:56:05;;;;;;;;;;;23.20;52.60;;;;;;5055633;28;19925;-68
2021/05/30 07:58:34;;;;;;;;;;;25.00;52.20;;;;;;5057353;28;19925;-67
2021/05/30 08:01:27;;;;;;;;;;;22.60;56.30;;;;;;5054827;28;19932;-67
2021/05/30 08:03:55;;;;;;;;;;;21.70;61.20;;;;;;5055976;28;19924;-67
2021/05/30 08:06:23;;;;;;;;;;;22.00;62.70;;;;;;5055004;28;20019;-67
2021/05/30 08:08:51;;;;;;;;;;;22.10;62.20;;;;;;5055485;28;19932;-66
2021/05/30 08:11:20;;;;;;;;;;;21.30;63.70;;;;;;5036915;28;19931;-66
2021/05/30 08:13:48;;;;;;;;;;;21.00;63.10;;;;;;5055400;28;20282;-67
2021/05/30 08:16:16;;;;;;;;;;;21.00;63.20;;;;;;5053860;28;19925;-67
2021/05/30 08:18:43;;;;;;;;;;;22.20;58.10;;;;;;5055117;28;20364;-66
2021/05/30 08:21:11;;;;;;;;;;;22.20;56.80;;;;;;5055389;28;19991;-67
2021/05/30 08:23:40;;;;;;;;;;;21.00;57.30;;;;;;5036950;28;19987;-66
2021/05/30 08:26:09;;;;;;;;;;;20.70;58.70;;;;;;5054767;28;19926;-66
2021/05/30 08:28:38;;;;;;;;;;;20.80;59.70;;;;;;5054866;28;20434;-66
2021/05/30 08:31:06;;;;;;;;;;;21.30;58.80;;;;;;5053857;28;19991;-68
2021/05/30 08:33:34;;;;;;;;;;;20.10;59.00;;;;;;5054701;28;19960;-66
2021/05/30 08:36:02;;;;;;;;;;;19.80;59.60;;;;;;5054820;28;19959;-67
2021/05/30 08:38:31;;;;;;;;;;;19.00;61.90;;;;;;5054855;28;19925;-66
2021/05/30 08:40:59;;;;;;;;;;;18.80;63.00;;;;;;5055506;28;19994;-67
2021/05/30 08:43:28;;;;;;;;;;;20.80;59.80;;;;;;5055285;28;20007;-66
2021/05/30 08:45:56;;;;;;;;;;;23.50;53.00;;;;;;5036172;28;19940;-69
2021/05/30 08:48:23;;;;;;;;;;;23.80;47.80;;;;;;5054700;28;20030;-67
2021/05/30 08:51:04;;;;;;;;;;;21.90;49.30;;;;;;5054642;28;20023;-66
2021/05/30 08:53:33;;;;;;;;;;;22.20;50.50;;;;;;5054260;28;19929;-67
2021/05/30 08:56:02;;;;;;;;;;;22.80;48.60;;;;;;5055214;28;19991;-67
2021/05/30 08:58:34;;;;;;;;;;;23.60;48.00;;;;;;5055106;28;19925;-67
2021/05/30 09:01:12;;;;;;;;;;;25.80;45.20;;;;;;5053523;28;19931;-67
2021/05/30 09:03:50;;;;;;;;;;;27.00;43.00;;;;;;5054183;28;19944;-68
2021/05/30 09:06:19;;;;;;;;;;;27.80;42.00;;;;;;5054207;28;19925;-67
2021/05/30 09:08:50;;;;;;;;;;;27.80;42.90;;;;;;5054147;28;20345;-68
2021/05/30 09:11:33;;;;;;;;;;;28.20;42.70;;;;;;5053636;28;20024;-68
2021/05/30 09:14:04;;;;;;;;;;;26.80;41.40;;;;;;5052615;28;19928;-67
2021/05/30 09:16:46;;;;;;;;;;;27.40;42.00;;;;;;5052987;28;20218;-70
2021/05/30 09:19:31;;;;;;;;;;;25.40;43.90;;;;;;5053795;28;19924;-68
2021/05/30 09:22:13;;;;;;;;;;;23.40;48.50;;;;;;5053905;28;19925;-68
2021/05/30 09:24:42;;;;;;;;;;;21.80;51.60;;;;;;5054061;28;19936;-67
2021/05/30 09:27:29;;;;;;;;;;;20.10;53.20;;;;;;5054058;28;19924;-70
2021/05/30 09:30:24;;;;;;;;;;;19.30;56.70;;;;;;5053857;28;19924;-68
2021/05/30 09:32:57;;;;;;;;;;;19.20;56.60;;;;;;5018123;28;19956;-67
2021/05/30 09:35:25;;;;;;;;;;;19.60;54.30;;;;;;5053327;28;19929;-67
2021/05/30 09:37:57;;;;;;;;;;;20.50;52.30;;;;;;5035634;28;19932;-67
2021/05/30 09:40:34;;;;;;;;;;;21.40;51.00;;;;;;5055471;28;19929;-69
2021/05/30 09:43:06;;;;;;;;;;;21.80;48.60;;;;;;5053787;28;19938;-68
2021/05/30 09:45:35;;;;;;;;;;;21.10;48.00;;;;;;5053217;28;20020;-67
2021/05/30 09:48:04;;;;;;;;;;;20.90;50.60;;;;;;5053608;28;19925;-67
2021/05/30 09:50:33;;;;;;;;;;;21.10;51.50;;;;;;5053908;28;19928;-70
2021/05/30 09:53:01;;;;;;;;;;;20.30;50.50;;;;;;5053873;28;20399;-67
2021/05/30 09:55:32;;;;;;;;;;;20.50;50.70;;;;;;5053852;28;20300;-67
2021/05/30 09:58:08;;;;;;;;;;;19.80;50.30;;;;;;5053884;28;20021;-67
2021/05/30 10:00:36;;;;;;;;;;;19.80;52.90;;;;;;5053123;28;19924;-70
2021/05/30 10:03:05;;;;;;;;;;;19.40;53.50;;;;;;5054630;28;19925;-67
2021/05/30 10:05:37;;;;;;;;;;;19.90;53.70;;;;;;5054125;28;19949;-68
2021/05/30 10:08:06;;;;;;;;;;;20.30;52.20;;;;;;5054514;28;20298;-67
2021/05/30 10:10:34;;;;;;;;;;;20.40;51.70;;;;;;5054257;28;20015;-67
2021/05/30 10:13:02;;;;;;;;;;;20.40;51.10;;;;;;5053985;28;19931;-68
2021/05/30 10:15:30;;;;;;;;;;;20.40;51.70;;;;;;5051322;28;19932;-70
2021/05/30 10:17:58;;;;;;;;;;;19.90;52.90;;;;;;5054583;28;19925;-68
2021/05/30 10:20:27;;;;;;;;;;;20.10;52.30;;;;;;5054908;28;19936;-67
2021/05/30 10:22:56;;;;;;;;;;;20.90;50.90;;;;;;5054790;28;19978;-68
2021/05/30 10:25:25;;;;;;;;;;;20.90;47.60;;;;;;5054727;28;19925;-68
2021/05/30 10:28:09;;;;;;;;;;;20.60;47.30;;;;;;5054289;28;20414;-69
2021/05/30 10:30:37;;;;;;;;;;;21.20;49.20;;;;;;5053940;28;19984;-71
2021/05/30 10:33:18;;;;;;;;;;;22.80;46.80;;;;;;5054079;28;19952;-70
2021/05/30 10:35:48;;;;;;;;;;;25.50;43.60;;;;;;5055031;28;19935;-69
2021/05/30 10:38:30;;;;;;;;;;;25.10;42.40;;;;;;5055246;28;20437;-68
2021/05/30 10:41:12;;;;;;;;;;;23.70;44.90;;;;;;5055456;28;19931;-69
2021/05/30 10:43:39;;;;;;;;;;;22.90;45.90;;;;;;5054395;28;20012;-68
2021/05/30 10:46:08;;;;;;;;;;;21.20;46.40;;;;;;5054271;28;20366;-68
2021/05/30 10:48:37;;;;;;;;;;;21.00;48.10;;;;;;5057204;28;20383;-66
2021/05/30 10:53:53;;;;;;;;;;;20.50;47.00;;;;;;5052145;28;19925;-67
2021/05/30 10:56:26;;;;;;;;;;;19.70;45.20;;;;;;5058939;28;19947;-66
2021/05/30 10:59:14;;;;;;;;;;;19.60;46.70;;;;;;5058886;28;19925;-67
2021/05/30 11:01:48;;;;;;;;;;;19.80;46.90;;;;;;5057667;28;20033;-67
2021/05/30 11:04:36;;;;;;;;;;;20.30;49.50;;;;;;5057682;28;19992;-67
2021/05/30 11:07:08;;;;;;;;;;;20.40;46.90;;;;;;5054774;28;19984;-66
2021/05/30 11:09:56;;;;;;;;;;;20.00;46.80;;;;;;5058325;28;20024;-68
2021/05/30 11:12:24;;;;;;;;;;;20.00;46.40;;;;;;5057862;28;19925;-68
2021/05/30 11:15:07;;;;;;;;;;;20.60;45.80;;;;;;5058391;28;19979;-70
2021/05/30 11:17:35;;;;;;;;;;;21.40;43.50;;;;;;5045657;28;19975;-66
2021/05/30 11:20:03;;;;;;;;;;;21.50;41.20;;;;;;5058321;28;19925;-66
2021/05/30 11:22:40;;;;;;;;;;;21.40;41.40;;;;;;5058992;28;19925;-66
2021/05/30 11:25:09;;;;;;;;;;;21.70;40.70;;;;;;5058345;28;20299;-67
2021/05/30 11:27:53;;;;;;;;;;;22.10;39.60;;;;;;5058217;28;19929;-66
2021/05/30 11:30:37;;;;;;;;;;;21.60;39.00;;;;;;5056176;28;19987;-66
2021/05/30 11:33:06;;;;;;;;;;;20.70;40.00;;;;;;5037960;28;20367;-66
2021/05/30 11:35:34;;;;;;;;;;;19.70;40.90;;;;;;5056630;28;20023;-69
2021/05/30 11:38:05;;;;;;;;;;;19.60;43.00;;;;;;5055608;28;19925;-67
2021/05/30 11:40:35;;;;;;;;;;;19.80;43.80;;;;;;5057239;28;19925;-67
2021/05/30 11:43:13;;;;;;;;;;;19.70;43.50;;;;;;5057980;28;19932;-67
2021/05/30 11:45:42;;;;;;;;;;;19.90;42.80;;;;;;5055883;28;20028;-66
2021/05/30 11:48:14;;;;;;;;;;;19.40;42.80;;;;;;5056749;28;19925;-66
2021/05/30 11:50:50;;;;;;;;;;;19.30;42.50;;;;;;5056462;28;19924;-66
2021/05/30 11:53:26;;;;;;;;;;;19.10;43.40;;;;;;5056838;28;19925;-66
2021/05/30 11:55:54;;;;;;;;;;;19.00;43.10;;;;;;5056127;28;19931;-66
2021/05/30 11:58:22;;;;;;;;;;;19.10;43.50;;;;;;5055883;28;19924;-66
2021/05/30 12:00:54;;;;;;;;;;;19.40;45.00;;;;;;5054575;28;19979;-66
2021/05/30 12:03:22;;;;;;;;;;;19.60;44.80;;;;;;5055599;28;19925;-65
2021/05/30 12:05:55;;;;;;;;;;;19.50;43.90;;;;;;5056080;28;19928;-66
2021/05/30 12:08:55;;;;;;;;;;;19.10;43.30;;;;;;5056102;28;19925;-66
2021/05/30 12:11:29;;;;;;;;;;;18.90;43.40;;;;;;5055789;28;19925;-66
2021/05/30 12:14:02;;;;;;;;;;;18.90;44.30;;;;;;5055430;28;19936;-66
2021/05/30 12:16:30;;;;;;;;;;;19.10;45.10;;;;;;5053886;28;20417;-66
2021/05/30 12:18:59;;;;;;;;;;;19.20;44.90;;;;;;5055502;28;19932;-66
2021/05/30 12:21:28;;;;;;;;;;;19.40;43.80;;;;;;5037560;28;19932;-65
2021/05/30 12:24:00;;;;;;;;;;;19.10;43.00;;;;;;5056381;28;19952;-66
2021/05/30 12:26:27;;;;;;;;;;;19.30;45.00;;;;;;5038881;28;19929;-66
2021/05/30 12:28:55;;;;;;;;;;;19.50;44.60;;;;;;5055742;28;19970;-65
2021/05/30 12:31:24;;;;;;;;;;;19.30;43.40;;;;;;5054928;28;19985;-66
2021/05/30 12:33:54;;;;;;;;;;;19.50;43.70;;;;;;5055189;28;19978;-67
2021/05/30 12:36:43;;;;;;;;;;;19.70;44.20;;;;;;5056145;28;19925;-67
2021/05/30 12:39:12;;;;;;;;;;;19.70;43.30;;;;;;5041353;28;19925;-66
2021/05/30 12:41:42;;;;;;;;;;;19.70;43.70;;;;;;5058445;28;19932;-67
2021/05/30 12:44:11;;;;;;;;;;;19.60;43.80;;;;;;5055673;28;20399;-66
2021/05/30 12:46:39;;;;;;;;;;;19.60;43.90;;;;;;5055879;28;20347;-69
2021/05/30 12:49:13;;;;;;;;;;;19.80;44.00;;;;;;5055669;28;20004;-67
2021/05/30 12:52:01;;;;;;;;;;;19.90;42.90;;;;;;5055064;28;19960;-67
2021/05/30 12:54:30;;;;;;;;;;;19.90;42.20;;;;;;5059033;28;19929;-67
2021/05/30 12:56:59;;;;;;;;;;;19.90;42.60;;;;;;5057163;28;19925;-68
2021/05/30 13:02:24;;;;;;;;;;;20.20;42.50;;;;;;5038177;28;19925;-67
2021/05/30 13:04:51;;;;;;;;;;;20.00;42.20;;;;;;5059428;28;19974;-68
2021/05/30 13:07:28;;;;;;;;;;;19.90;42.90;;;;;;5055267;28;19983;-67
2021/05/30 13:10:00;;;;;;;;;;;19.70;42.00;;;;;;5053933;28;19925;-66
2021/05/30 13:15:28;;;;;;;;;;;19.90;41.90;;;;;;5053544;28;20392;-66
2021/05/30 13:18:09;;;;;;;;;;;19.70;41.00;;;;;;5036785;28;19964;-67
2021/05/30 13:20:40;;;;;;;;;;;19.30;42.10;;;;;;5053676;28;19951;-67
2021/05/30 13:23:15;;;;;;;;;;;19.30;43.50;;;;;;5053703;28;19932;-67
2021/05/30 13:25:44;;;;;;;;;;;19.10;43.20;;;;;;5055004;28;20415;-67
2021/05/30 13:28:13;;;;;;;;;;;19.10;43.60;;;;;;5036733;28;19929;-67
2021/05/30 13:30:41;;;;;;;;;;;19.40;43.10;;;;;;5053046;28;19932;-67
2021/05/30 13:33:09;;;;;;;;;;;19.50;44.00;;;;;;5054365;28;20386;-67
2021/05/30 13:35:37;;;;;;;;;;;19.50;43.50;;;;;;5054364;28;19929;-67
2021/05/30 13:38:05;;;;;;;;;;;19.40;43.90;;;;;;5054581;28;20331;-67
2021/05/30 13:40:40;;;;;;;;;;;19.50;43.10;;;;;;5054779;28;19952;-66
2021/05/30 13:43:09;;;;;;;;;;;19.20;42.30;;;;;;5061096;28;19939;-68
2021/05/30 13:45:37;;;;;;;;;;;19.40;40.90;;;;;;5066773;28;19992;-68
2021/05/30 13:48:05;;;;;;;;;;;19.20;41.30;;;;;;5067664;28;19932;-67
2021/05/30 13:50:35;;;;;;;;;;;19.20;43.30;;;;;;5066978;28;19947;-67
2021/05/30 13:53:07;;;;;;;;;;;19.30;42.60;;;;;;5065030;28;19925;-67
2021/05/30 13:55:35;;;;;;;;;;;19.30;44.10;;;;;;5064579;28;19933;-67
2021/05/30 13:58:03;;;;;;;;;;;19.50;44.90;;;;;;5060675;28;19925;-67
2021/05/30 14:00:33;;;;;;;;;;;19.40;44.00;;;;;;5057959;28;19925;-67
2021/05/30 14:03:01;;;;;;;;;;;19.90;44.90;;;;;;5054628;28;19963;-67
2021/05/30 14:05:29;;;;;;;;;;;19.90;44.10;;;;;;5054769;28;19925;-67
2021/05/30 14:07:57;;;;;;;;;;;19.60;43.20;;;;;;5054541;28;20023;-67
2021/05/30 14:10:25;;;;;;;;;;;19.40;41.90;;;;;;5066521;28;19929;-67
2021/05/30 14:12:53;;;;;;;;;;;19.30;42.80;;;;;;5067943;28;19925;-69
2021/05/30 14:15:21;;;;;;;;;;;19.40;43.40;;;;;;5053945;28;19925;-66
2021/05/30 14:17:50;;;;;;;;;;;19.10;42.90;;;;;;5054385;28;19979;-68
2021/05/30 14:20:18;;;;;;;;;;;19.00;43.50;;;;;;5053995;28;19937;-67
2021/05/30 14:22:46;;;;;;;;;;;18.90;42.40;;;;;;5056457;28;19924;-67
2021/05/30 14:25:14;;;;;;;;;;;19.40;43.10;;;;;;5057303;28;19925;-67
2021/05/30 14:28:07;;;;;;;;;;;19.40;42.00;;;;;;5057294;28;19925;-67
2021/05/30 14:30:35;;;;;;;;;;;20.30;41.50;;;;;;5057496;28;19925;-68
2021/05/30 14:33:04;;;;;;;;;;;19.90;40.70;;;;;;5057818;28;19931;-68
2021/05/30 14:35:32;;;;;;;;;;;20.30;41.60;;;;;;5057311;28;19925;-67
2021/05/30 14:38:00;;;;;;;;;;;20.20;41.30;;;;;;5057299;28;19925;-70
2021/05/30 14:40:28;;;;;;;;;;;20.60;41.90;;;;;;5056676;28;19935;-67
2021/05/30 14:42:56;;;;;;;;;;;20.50;41.40;;;;;;5056643;28;20368;-67
2021/05/30 14:45:25;;;;;;;;;;;20.40;41.90;;;;;;5056097;28;19925;-67
2021/05/30 14:47:52;;;;;;;;;;;20.20;42.10;;;;;;5056840;28;19990;-67
2021/05/30 14:50:21;;;;;;;;;;;19.90;43.20;;;;;;5057589;28;19950;-68